Time;durP1;ratioP1;P1;durP2;ratioP2;P2;SDS_P1;SDS_P2;PMS_P1;PMS_P2;Temp;Humidity;BMP_temperature;BMP_pressure;BME280_temperature;BME280_humidity;BME280_pressure;Samples;Min_cycle;Max_cycle;Signal;HPM_P1;HPM_P2
2023/06/24 00:00:45;;;;;;;11.45;7.10;;;17.30;99.90;;;;;;4941184;28;209170;-68
2023/06/24 00:03:12;;;;;;;12.75;6.95;;;17.30;99.90;;;;;;4986303;28;20058;-70
2023/06/24 00:05:38;;;;;;;11.50;6.38;;;17.20;99.90;;;;;;4959321;28;206861;-71
2023/06/24 00:08:06;;;;;;;11.63;7.07;;;17.20;99.90;;;;;;4986681;28;20046;-71
2023/06/24 00:10:32;;;;;;;12.77;7.03;;;17.20;99.90;;;;;;4952058;28;213445;-71
2023/06/24 00:13:01;;;;;;;12.63;7.93;;;17.10;99.90;;;;;;4988864;28;20054;-70
2023/06/24 00:15:27;;;;;;;13.93;6.80;;;17.10;99.90;;;;;;4959906;28;208104;-69
2023/06/24 00:17:53;;;;;;;15.13;7.63;;;17.00;99.90;;;;;;4987800;28;20055;-70
2023/06/24 00:20:20;;;;;;;11.00;7.20;;;17.00;99.90;;;;;;4958496;28;213077;-70
2023/06/24 00:22:48;;;;;;;10.95;7.18;;;16.90;99.90;;;;;;4986632;28;20058;-73
2023/06/24 00:25:15;;;;;;;13.32;7.72;;;16.90;99.90;;;;;;4942084;28;277564;-70
2023/06/24 00:27:44;;;;;;;12.05;7.40;;;16.80;99.90;;;;;;4991938;28;20050;-69
2023/06/24 00:30:10;;;;;;;14.88;7.18;;;16.80;99.90;;;;;;4933327;28;206202;-69
2023/06/24 00:32:37;;;;;;;13.85;7.72;;;16.80;99.90;;;;;;4967372;28;20047;-70
2023/06/24 00:35:03;;;;;;;11.80;7.05;;;16.80;99.90;;;;;;4925508;28;208971;-71
2023/06/24 00:37:32;;;;;;;13.13;6.78;;;16.70;99.90;;;;;;4968247;28;20536;-70
2023/06/24 00:39:58;;;;;;;11.88;6.60;;;16.70;99.90;;;;;;4919244;28;220980;-71
2023/06/24 00:42:31;;;;;;;12.90;7.25;;;16.70;99.90;;;;;;4965362;28;20055;-70
2023/06/24 00:44:57;;;;;;;11.70;6.90;;;16.70;99.90;;;;;;4934835;28;209899;-70
2023/06/24 00:47:26;;;;;;;11.15;6.80;;;16.70;99.90;;;;;;4972223;28;20047;-72
2023/06/24 00:49:52;;;;;;;12.00;6.65;;;16.60;99.90;;;;;;4934372;28;204813;-70
2023/06/24 00:52:18;;;;;;;11.85;6.80;;;16.60;99.90;;;;;;4973830;28;20058;-71
2023/06/24 00:54:47;;;;;;;11.43;7.15;;;16.60;99.90;;;;;;4901554;28;141126;-72
2023/06/24 00:57:13;;;;;;;12.55;7.70;;;16.60;99.90;;;;;;4965639;28;20614;-72
2023/06/24 00:59:42;;;;;;;11.40;7.05;;;16.50;99.90;;;;;;4937360;28;219757;-70
2023/06/24 01:02:09;;;;;;;11.15;6.82;;;16.50;99.90;;;;;;4970933;28;20058;-70
2023/06/24 01:04:36;;;;;;;12.40;7.65;;;16.40;99.90;;;;;;4916724;28;199328;-72
2023/06/24 01:07:05;;;;;;;12.68;7.32;;;16.40;99.90;;;;;;4974406;28;20054;-70
2023/06/24 01:09:31;;;;;;;14.68;8.10;;;16.40;99.90;;;;;;4903288;28;178221;-71
2023/06/24 01:11:57;;;;;;;13.27;8.00;;;16.40;99.90;;;;;;4946379;28;20051;-71
2023/06/24 01:14:24;;;;;;;15.05;8.05;;;16.40;99.90;;;;;;4912044;28;208163;-70
2023/06/24 01:17:12;;;;;;;12.95;8.02;;;16.30;99.90;;;;;;4983344;28;20058;-71
2023/06/24 01:19:50;;;;;;;12.63;8.50;;;16.40;99.90;;;;;;4927455;28;215997;-69
2023/06/24 01:22:28;;;;;;;14.30;10.27;;;16.30;99.90;;;;;;4991371;28;20054;-72
2023/06/24 01:25:15;;;;;;;13.70;8.68;;;16.30;99.90;;;;;;4957625;28;219695;-69
2023/06/24 01:28:03;;;;;;;12.93;8.23;;;16.30;99.90;;;;;;4984152;28;20057;-70
2023/06/24 01:30:48;;;;;;;15.30;9.02;;;16.30;99.90;;;;;;4958005;28;209237;-71
2023/06/24 01:33:32;;;;;;;13.35;7.60;;;16.20;99.90;;;;;;4982030;28;20058;-72
2023/06/24 01:36:00;;;;;;;18.88;8.93;;;16.20;99.90;;;;;;4974542;28;102914;-70
2023/06/24 01:38:51;;;;;;;12.43;7.18;;;16.20;99.90;;;;;;4977142;28;20505;-70
2023/06/24 01:41:24;;;;;;;14.93;9.30;;;16.20;99.90;;;;;;4913874;28;20062;-70
2023/06/24 01:43:56;;;;;;;13.57;8.50;;;16.10;99.90;;;;;;4937896;28;204763;-70
2023/06/24 01:46:26;;;;;;;15.63;9.73;;;16.10;99.90;;;;;;4995640;28;20050;-70
2023/06/24 01:48:57;;;;;;;15.85;9.48;;;16.10;99.90;;;;;;4938453;28;212195;-71
2023/06/24 01:51:26;;;;;;;15.02;9.88;;;16.10;99.90;;;;;;4995278;28;20065;-70
2023/06/24 01:53:57;;;;;;;13.45;9.48;;;16.10;99.90;;;;;;4917551;28;218731;-70
2023/06/24 01:56:27;;;;;;;15.20;10.02;;;16.10;99.90;;;;;;4981886;28;20061;-70
2023/06/24 01:58:57;;;;;;;16.00;9.80;;;16.00;99.90;;;;;;4930397;28;213246;-71
2023/06/24 02:01:24;;;;;;;15.82;9.52;;;16.10;99.90;;;;;;5006308;28;20057;-70
2023/06/24 02:03:53;;;;;;;15.55;10.05;;;16.00;99.90;;;;;;4932936;28;207656;-71
2023/06/24 02:06:20;;;;;;;16.02;10.18;;;16.00;99.90;;;;;;5004939;28;20062;-70
2023/06/24 02:08:50;;;;;;;16.33;10.20;;;16.00;99.90;;;;;;4933110;28;213572;-71
2023/06/24 02:11:17;;;;;;;17.30;11.20;;;16.00;99.90;;;;;;4995597;28;20071;-71
2023/06/24 02:13:45;;;;;;;14.63;9.57;;;16.00;99.90;;;;;;4936721;28;207844;-68
2023/06/24 02:16:16;;;;;;;16.92;10.95;;;16.00;99.90;;;;;;4963898;28;20065;-69
2023/06/24 02:18:44;;;;;;;17.40;11.07;;;16.00;99.90;;;;;;4906817;28;228152;-71
2023/06/24 02:21:11;;;;;;;19.15;12.90;;;15.90;99.90;;;;;;4997428;28;20061;-69
2023/06/24 02:23:38;;;;;;;19.13;13.93;;;15.90;99.90;;;;;;4936281;28;210387;-69
2023/06/24 02:26:05;;;;;;;18.88;12.48;;;15.90;99.90;;;;;;4978958;28;20058;-71
2023/06/24 02:28:33;;;;;;;17.95;12.15;;;15.90;99.90;;;;;;4955078;28;203815;-70
2023/06/24 02:31:00;;;;;;;20.85;13.50;;;15.90;99.90;;;;;;4942872;28;131936;-69
2023/06/24 02:33:27;;;;;;;17.42;12.55;;;15.90;99.90;;;;;;4963326;28;20058;-71
2023/06/24 02:35:53;;;;;;;18.20;12.45;;;15.80;99.90;;;;;;4927982;28;213450;-70
2023/06/24 02:38:19;;;;;;;18.00;12.93;;;15.90;99.90;;;;;;4982323;28;20062;-69
2023/06/24 02:40:45;;;;;;;18.85;12.98;;;15.80;99.90;;;;;;4940416;28;209008;-70
2023/06/24 02:43:12;;;;;;;19.75;12.75;;;15.80;99.90;;;;;;4985400;28;20057;-71
2023/06/24 02:45:41;;;;;;;19.23;13.75;;;15.80;99.90;;;;;;4954447;28;207284;-69
2023/06/24 02:48:10;;;;;;;22.98;13.52;;;15.80;99.90;;;;;;5000848;28;20058;-70
2023/06/24 02:50:37;;;;;;;19.27;13.35;;;15.80;99.90;;;;;;4941334;28;219239;-70
2023/06/24 02:53:05;;;;;;;19.45;14.63;;;15.80;99.90;;;;;;4981447;28;20070;-69
2023/06/24 02:55:33;;;;;;;20.30;12.63;;;15.80;99.90;;;;;;4942246;28;216718;-69
2023/06/24 02:57:59;;;;;;;19.83;13.93;;;15.70;99.90;;;;;;4986211;28;20062;-71
2023/06/24 03:00:33;;;;;;;19.50;14.30;;;15.80;99.90;;;;;;4963090;28;209005;-70
2023/06/24 03:03:02;;;;;;;17.63;13.32;;;15.70;99.90;;;;;;4998660;28;20062;-70
2023/06/24 03:05:31;;;;;;;21.08;14.45;;;15.70;99.90;;;;;;4952372;28;210486;-70
2023/06/24 03:07:57;;;;;;;21.23;14.40;;;15.70;99.90;;;;;;4972217;28;20101;-70
2023/06/24 03:10:26;;;;;;;19.02;13.48;;;15.70;99.90;;;;;;4923065;28;205867;-70
2023/06/24 03:12:53;;;;;;;19.50;14.30;;;15.70;99.90;;;;;;4973633;28;20055;-70
2023/06/24 03:15:19;;;;;;;20.27;14.68;;;15.60;99.90;;;;;;4912715;28;220742;-69
2023/06/24 03:17:46;;;;;;;20.30;13.85;;;15.60;99.90;;;;;;4979632;28;20051;-69
2023/06/24 03:20:12;;;;;;;19.65;13.70;;;15.60;99.90;;;;;;4912121;28;208397;-69
2023/06/24 03:22:38;;;;;;;19.80;14.27;;;15.60;99.90;;;;;;4971449;28;20057;-71
2023/06/24 03:25:05;;;;;;;21.23;13.88;;;15.60;99.90;;;;;;4936356;28;208613;-70
2023/06/24 03:27:34;;;;;;;17.63;13.13;;;15.60;99.90;;;;;;4971589;28;20055;-69
2023/06/24 03:30:00;;;;;;;19.83;14.32;;;15.60;99.90;;;;;;4936605;28;212548;-70
2023/06/24 03:32:27;;;;;;;18.23;13.02;;;15.60;99.90;;;;;;4992613;28;20054;-70
2023/06/24 03:34:53;;;;;;;19.65;13.10;;;15.60;99.90;;;;;;4947302;28;207199;-70
2023/06/24 03:37:19;;;;;;;18.88;13.48;;;15.60;99.90;;;;;;4996125;28;20050;-71
2023/06/24 03:39:45;;;;;;;17.80;12.27;;;15.60;99.90;;;;;;4931728;28;207204;-68
2023/06/24 03:42:11;;;;;;;19.40;12.57;;;15.60;99.90;;;;;;4986194;28;20050;-71
2023/06/24 03:44:39;;;;;;;15.88;11.70;;;15.60;99.90;;;;;;4913681;28;219573;-71
2023/06/24 03:47:06;;;;;;;16.50;12.30;;;15.60;99.90;;;;;;4966514;28;20602;-71
2023/06/24 03:49:34;;;;;;;18.70;12.40;;;15.60;99.90;;;;;;4919097;28;222647;-70
2023/06/24 03:52:00;;;;;;;17.25;11.13;;;15.70;99.90;;;;;;4971618;28;20054;-68
2023/06/24 03:54:27;;;;;;;16.60;11.30;;;15.70;99.90;;;;;;4934785;28;216367;-68
2023/06/24 03:56:53;;;;;;;17.33;11.05;;;15.70;99.90;;;;;;4990336;28;20527;-69
2023/06/24 03:59:20;;;;;;;16.20;10.23;;;15.70;99.90;;;;;;4928263;28;212251;-72
2023/06/24 04:01:46;;;;;;;14.40;10.27;;;15.80;99.90;;;;;;4986663;28;20066;-70
2023/06/24 04:04:12;;;;;;;17.58;10.50;;;15.80;99.90;;;;;;4925011;28;210312;-70
2023/06/24 04:06:38;;;;;;;15.98;10.63;;;15.90;99.90;;;;;;4990051;28;20058;-69
2023/06/24 04:09:06;;;;;;;16.20;10.52;;;15.90;99.90;;;;;;4932963;28;205694;-70
2023/06/24 04:11:32;;;;;;;15.30;10.65;;;15.90;99.90;;;;;;4992578;28;20062;-70
2023/06/24 04:13:58;;;;;;;18.02;10.70;;;16.00;99.90;;;;;;4940021;28;130198;-70
2023/06/24 04:16:25;;;;;;;18.60;10.98;;;16.00;99.90;;;;;;4995702;28;20508;-70
2023/06/24 04:18:51;;;;;;;19.08;10.75;;;16.10;99.90;;;;;;4919009;28;213845;-69
2023/06/24 04:21:17;;;;;;;15.75;10.63;;;16.20;99.90;;;;;;4965202;28;20051;-69
2023/06/24 04:23:43;;;;;;;16.85;11.27;;;16.20;99.90;;;;;;4914515;28;217119;-69
2023/06/24 04:26:09;;;;;;;17.58;10.48;;;16.30;99.90;;;;;;5002218;28;20046;-70
2023/06/24 04:28:35;;;;;;;18.20;11.52;;;16.40;99.90;;;;;;4962790;28;207952;-68
2023/06/24 04:31:03;;;;;;;17.42;11.48;;;16.40;99.90;;;;;;4925896;28;20039;-70
2023/06/24 04:33:29;;;;;;;18.45;12.60;;;16.50;99.90;;;;;;4965586;28;20515;-70
2023/06/24 04:35:55;;;;;;;18.23;12.05;;;16.60;99.90;;;;;;4929129;28;207476;-71
2023/06/24 04:38:22;;;;;;;18.38;12.45;;;16.70;99.90;;;;;;4967281;28;20514;-70
2023/06/24 04:40:49;;;;;;;19.02;12.30;;;16.70;99.90;;;;;;4928719;28;206076;-69
2023/06/24 04:43:15;;;;;;;19.38;12.15;;;16.80;99.90;;;;;;4989666;28;20069;-71
2023/06/24 04:45:44;;;;;;;18.10;11.77;;;16.80;99.90;;;;;;4928687;28;213967;-70
2023/06/24 04:48:10;;;;;;;21.05;12.50;;;16.90;99.90;;;;;;4970310;28;20054;-70
2023/06/24 04:50:36;;;;;;;16.85;11.65;;;17.00;99.90;;;;;;4935003;28;219378;-70
2023/06/24 04:53:02;;;;;;;16.90;11.93;;;17.10;99.90;;;;;;4966407;28;20065;-69
2023/06/24 04:55:31;;;;;;;15.93;11.13;;;17.10;99.90;;;;;;4914964;28;248577;-70
2023/06/24 04:57:57;;;;;;;16.25;11.52;;;17.20;99.90;;;;;;4967583;28;20050;-70
2023/06/24 05:00:24;;;;;;;17.80;12.32;;;17.20;99.90;;;;;;4942870;28;213315;-70
2023/06/24 05:02:50;;;;;;;15.55;11.25;;;17.30;99.90;;;;;;4969552;28;20059;-70
2023/06/24 05:05:17;;;;;;;19.00;11.70;;;17.40;99.90;;;;;;4940504;28;208173;-69
2023/06/24 05:07:43;;;;;;;15.43;10.63;;;17.40;99.90;;;;;;4993767;28;20091;-68
2023/06/24 05:10:09;;;;;;;17.73;11.57;;;17.50;99.90;;;;;;4951605;28;224694;-69
2023/06/24 05:12:35;;;;;;;15.57;11.32;;;17.50;99.90;;;;;;4989682;28;20046;-70
2023/06/24 05:15:02;;;;;;;15.57;11.57;;;17.60;99.90;;;;;;4946812;28;207546;-70
2023/06/24 05:17:28;;;;;;;17.70;11.52;;;17.70;99.90;;;;;;4996038;28;20046;-71
2023/06/24 05:19:54;;;;;;;14.73;10.95;;;17.80;99.90;;;;;;4926154;28;212024;-72
2023/06/24 05:22:21;;;;;;;15.02;11.50;;;17.90;99.90;;;;;;4968086;28;20070;-68
2023/06/24 05:24:47;;;;;;;18.55;12.50;;;18.00;99.90;;;;;;4932714;28;214336;-69
2023/06/24 05:27:13;;;;;;;16.10;11.25;;;18.10;99.90;;;;;;4976364;28;20681;-71
2023/06/24 05:29:39;;;;;;;17.00;11.32;;;18.20;99.90;;;;;;4944721;28;209491;-71
2023/06/24 05:32:06;;;;;;;16.17;11.75;;;18.30;99.90;;;;;;4975714;28;20074;-70
2023/06/24 05:34:33;;;;;;;18.80;12.07;;;18.40;99.90;;;;;;4924672;28;214520;-69
2023/06/24 05:36:59;;;;;;;21.23;11.95;;;18.60;99.90;;;;;;4987344;28;20523;-70
2023/06/24 05:39:28;;;;;;;15.77;11.80;;;18.70;99.90;;;;;;4938018;28;205747;-69
2023/06/24 05:41:54;;;;;;;19.23;12.05;;;18.80;99.90;;;;;;4979625;28;20053;-70
2023/06/24 05:44:20;;;;;;;18.27;12.13;;;18.90;99.90;;;;;;4919642;28;207343;-70
2023/06/24 05:46:47;;;;;;;16.77;11.13;;;19.00;99.90;;;;;;4972413;28;20146;-72
2023/06/24 05:49:13;;;;;;;17.73;11.32;;;19.10;99.90;;;;;;4920739;28;209527;-73
2023/06/24 05:51:39;;;;;;;17.77;10.93;;;19.30;99.90;;;;;;4981103;28;20057;-72
2023/06/24 05:54:07;;;;;;;15.82;10.18;;;19.50;99.90;;;;;;4927963;28;209315;-72
2023/06/24 05:56:33;;;;;;;16.83;10.98;;;19.70;99.90;;;;;;4992978;28;20066;-74
2023/06/24 05:59:00;;;;;;;18.08;10.85;;;19.90;99.90;;;;;;4941385;28;211905;-72
2023/06/24 06:01:26;;;;;;;15.38;10.07;;;20.10;99.90;;;;;;4995301;28;20073;-73
2023/06/24 06:03:52;;;;;;;15.63;10.63;;;20.30;99.90;;;;;;4934499;28;209927;-72
2023/06/24 06:06:18;;;;;;;16.77;10.82;;;20.50;99.90;;;;;;5013893;28;20069;-72
2023/06/24 06:08:44;;;;;;;16.53;10.40;;;20.60;99.90;;;;;;4953888;28;216843;-73
2023/06/24 06:11:13;;;;;;;15.15;10.07;;;20.80;99.90;;;;;;5008122;28;20054;-71
2023/06/24 06:13:40;;;;;;;15.50;9.82;;;21.00;99.90;;;;;;4939447;28;233226;-72
2023/06/24 06:16:07;;;;;;;15.57;9.60;;;21.00;99.90;;;;;;4998349;28;20062;-72
2023/06/24 06:18:33;;;;;;;13.02;9.25;;;21.20;99.90;;;;;;4955942;28;208544;-72
2023/06/24 06:20:59;;;;;;;13.07;8.75;;;21.30;99.90;;;;;;4946000;28;209948;-72
2023/06/24 06:23:27;;;;;;;13.05;8.50;;;21.50;99.90;;;;;;4963832;28;20055;-72
2023/06/24 06:25:55;;;;;;;14.55;7.70;;;21.60;99.90;;;;;;4953058;28;207024;-72
2023/06/24 06:28:21;;;;;;;14.30;8.57;;;21.70;99.90;;;;;;4989626;28;20427;-72
2023/06/24 06:30:47;;;;;;;13.70;8.13;;;21.90;99.90;;;;;;4935770;28;247752;-72
2023/06/24 06:33:13;;;;;;;13.40;8.13;;;22.10;99.90;;;;;;4988878;28;20069;-74
2023/06/24 06:35:39;;;;;;;13.60;8.38;;;22.30;99.90;;;;;;4904379;28;207640;-71
2023/06/24 06:38:06;;;;;;;13.57;8.73;;;22.30;99.90;;;;;;4967157;28;20291;-72
2023/06/24 06:40:35;;;;;;;14.90;9.02;;;22.50;99.90;;;;;;4936969;28;228487;-72
2023/06/24 06:43:01;;;;;;;12.82;8.48;;;22.60;99.90;;;;;;4965504;28;20046;-72
2023/06/24 06:45:27;;;;;;;16.15;9.43;;;22.70;99.90;;;;;;4930804;28;215791;-72
2023/06/24 06:47:53;;;;;;;13.30;9.10;;;22.80;99.90;;;;;;4971457;28;20057;-71
2023/06/24 06:50:20;;;;;;;13.73;9.60;;;23.00;99.90;;;;;;4949504;28;206314;-72
2023/06/24 06:52:46;;;;;;;14.48;9.88;;;23.10;99.90;;;;;;4990970;28;20047;-73
2023/06/24 06:55:15;;;;;;;15.75;9.77;;;23.30;99.90;;;;;;4950714;28;208051;-72
2023/06/24 06:57:41;;;;;;;16.50;10.52;;;23.60;99.90;;;;;;4986299;28;20050;-73
2023/06/24 07:00:08;;;;;;;15.40;10.10;;;23.70;99.60;;;;;;4948581;28;154045;-73
2023/06/24 07:02:34;;;;;;;15.85;10.57;;;23.90;99.70;;;;;;4991303;28;20046;-72
2023/06/24 07:05:02;;;;;;;16.65;9.70;;;23.90;99.50;;;;;;4950731;28;209175;-72
2023/06/24 07:07:29;;;;;;;15.00;9.57;;;24.10;98.50;;;;;;4992064;28;20472;-72
2023/06/24 07:09:56;;;;;;;16.35;9.75;;;24.20;98.00;;;;;;4910713;28;240433;-73
2023/06/24 07:12:23;;;;;;;14.27;8.50;;;24.50;98.80;;;;;;4972967;28;20054;-72
2023/06/24 07:14:50;;;;;;;14.23;8.55;;;24.50;98.30;;;;;;4931443;28;108447;-72
2023/06/24 07:17:19;;;;;;;13.48;8.63;;;24.30;97.20;;;;;;4974394;28;20058;-73
2023/06/24 07:19:45;;;;;;;16.42;9.38;;;24.00;97.50;;;;;;4933860;28;217209;-72
2023/06/24 07:22:12;;;;;;;14.05;8.70;;;23.90;98.00;;;;;;4980998;28;20512;-72
2023/06/24 07:24:38;;;;;;;14.88;8.95;;;23.90;97.90;;;;;;4920499;28;162117;-71
2023/06/24 07:27:06;;;;;;;13.68;8.70;;;23.90;97.80;;;;;;5000040;28;20045;-71
2023/06/24 07:29:32;;;;;;;12.23;8.20;;;23.90;97.90;;;;;;4953824;28;120814;-71
2023/06/24 07:31:58;;;;;;;14.05;8.88;;;24.00;97.60;;;;;;4984692;28;20055;-72
2023/06/24 07:34:25;;;;;;;12.43;8.23;;;24.00;97.60;;;;;;4923899;28;226051;-73
2023/06/24 07:36:51;;;;;;;11.77;7.28;;;24.10;97.70;;;;;;4998862;28;20504;-72
2023/06/24 07:39:20;;;;;;;12.32;7.57;;;24.10;97.50;;;;;;4936276;28;210560;-71
2023/06/24 07:41:48;;;;;;;13.40;7.32;;;24.10;97.20;;;;;;5013372;28;20078;-73
2023/06/24 07:44:15;;;;;;;11.98;7.10;;;24.20;97.10;;;;;;4928438;28;636846;-72
2023/06/24 07:46:43;;;;;;;11.02;7.00;;;24.50;96.70;;;;;;4977870;28;20046;-72
2023/06/24 07:49:10;;;;;;;10.57;6.72;;;24.70;96.70;;;;;;4916811;28;206131;-72
2023/06/24 07:51:36;;;;;;;10.27;6.25;;;24.90;96.20;;;;;;4999298;28;20054;-71
2023/06/24 07:54:02;;;;;;;11.07;6.20;;;25.20;96.40;;;;;;4807642;28;3162720;-72
2023/06/24 07:56:29;;;;;;;10.35;5.43;;;25.50;96.10;;;;;;4970626;28;20454;-71
2023/06/24 07:58:57;;;;;;;13.60;5.25;;;25.50;95.30;;;;;;4933698;28;209678;-73
2023/06/24 08:01:24;;;;;;;11.07;5.28;;;25.40;95.30;;;;;;4967389;28;20051;-72
2023/06/24 08:03:50;;;;;;;11.45;5.18;;;25.50;95.50;;;;;;4927424;28;205710;-71
2023/06/24 08:06:16;;;;;;;9.82;4.40;;;25.70;95.00;;;;;;4959926;28;20053;-73
2023/06/24 08:08:42;;;;;;;8.70;4.03;;;26.10;95.10;;;;;;4916951;28;228265;-71
2023/06/24 08:11:10;;;;;;;8.85;3.92;;;26.30;94.30;;;;;;4980302;28;20077;-73
2023/06/24 08:13:39;;;;;;;10.00;3.78;;;26.30;93.60;;;;;;4930044;28;198873;-71
2023/06/24 08:16:05;;;;;;;8.27;3.70;;;26.20;93.30;;;;;;4974605;28;20047;-72
2023/06/24 08:18:34;;;;;;;8.57;3.63;;;26.20;93.30;;;;;;4963979;28;207631;-70
2023/06/24 08:21:00;;;;;;;7.60;3.42;;;26.30;93.00;;;;;;4969595;28;30446;-73
2023/06/24 08:23:27;;;;;;;7.80;3.45;;;26.50;93.00;;;;;;4970826;28;20539;-72
2023/06/24 08:25:53;;;;;;;9.75;3.55;;;26.70;92.60;;;;;;4927795;28;239763;-73
2023/06/24 08:28:22;;;;;;;8.05;3.60;;;26.70;92.60;;;;;;4971556;28;20042;-72
2023/06/24 08:30:48;;;;;;;8.50;3.50;;;26.70;92.70;;;;;;4964469;28;209629;-74
2023/06/24 08:33:14;;;;;;;9.35;3.80;;;26.70;92.40;;;;;;4984961;28;20065;-75
2023/06/24 08:35:40;;;;;;;7.75;3.42;;;26.60;92.60;;;;;;4941417;28;208049;-72
2023/06/24 08:38:06;;;;;;;9.40;4.07;;;26.60;92.70;;;;;;4970972;28;20051;-72
2023/06/24 08:40:32;;;;;;;10.57;3.63;;;26.60;92.70;;;;;;4963765;28;104574;-72
2023/06/24 08:42:58;;;;;;;10.23;4.10;;;26.50;92.50;;;;;;4983096;28;20057;-72
2023/06/24 08:45:26;;;;;;;9.52;3.97;;;26.70;92.70;;;;;;4958401;28;209498;-72
2023/06/24 08:47:54;;;;;;;8.73;3.90;;;27.00;92.50;;;;;;4965799;28;20061;-72
2023/06/24 08:50:26;;;;;;;9.07;4.03;;;27.10;92.30;;;;;;4932073;28;209409;-73
2023/06/24 08:52:53;;;;;;;8.65;3.67;;;27.10;92.20;;;;;;4967201;28;20058;-72
2023/06/24 08:55:23;;;;;;;8.27;3.80;;;27.20;92.30;;;;;;4927392;28;207601;-72
2023/06/24 08:57:52;;;;;;;11.00;4.05;;;27.20;92.40;;;;;;4965502;28;20058;-73
2023/06/24 09:00:19;;;;;;;10.10;3.63;;;27.30;91.90;;;;;;4942470;28;209918;-72
2023/06/24 09:02:45;;;;;;;9.02;4.05;;;27.30;92.00;;;;;;4970071;28;20054;-72
2023/06/24 09:05:11;;;;;;;8.93;3.63;;;27.40;92.00;;;;;;4924100;28;145940;-72
2023/06/24 09:07:38;;;;;;;9.40;4.10;;;27.90;92.00;;;;;;4970791;28;20522;-73
2023/06/24 09:10:04;;;;;;;10.95;4.03;;;28.50;91.60;;;;;;4936392;28;205611;-72
2023/06/24 09:12:34;;;;;;;8.57;3.83;;;29.20;91.40;;;;;;4987660;28;20054;-73
2023/06/24 09:15:00;;;;;;;9.13;4.07;;;29.60;90.90;;;;;;4954522;28;213520;-72
2023/06/24 09:17:28;;;;;;;10.85;4.78;;;29.50;90.70;;;;;;4995231;28;20517;-73
2023/06/24 09:20:04;;;;;;;11.48;3.75;;;29.40;90.90;;;;;;4933303;28;185323;-71
2023/06/24 09:22:30;;;;;;;10.73;4.57;;;30.00;90.50;;;;;;4983330;28;20070;-73
2023/06/24 09:24:57;;;;;;;9.93;4.68;;;30.30;90.40;;;;;;4957022;28;209706;-73
2023/06/24 09:27:23;;;;;;;10.85;4.53;;;30.50;90.10;;;;;;5001525;28;20042;-73
2023/06/24 09:29:50;;;;;;;8.63;3.90;;;30.60;90.10;;;;;;4943362;28;211288;-72
2023/06/24 09:32:16;;;;;;;11.70;4.10;;;31.20;90.10;;;;;;4981635;28;20065;-72
2023/06/24 09:34:43;;;;;;;10.02;3.78;;;31.20;89.00;;;;;;4921582;28;196332;-73
2023/06/24 09:37:10;;;;;;;10.43;4.45;;;31.30;88.10;;;;;;4976116;28;20059;-73
2023/06/24 09:39:40;;;;;;;9.13;4.00;;;31.20;87.60;;;;;;4911795;28;221259;-73
2023/06/24 09:42:07;;;;;;;9.07;4.00;;;31.30;86.70;;;;;;4973440;28;20061;-73
2023/06/24 09:44:34;;;;;;;11.20;3.75;;;31.30;87.00;;;;;;4930129;28;212454;-71
2023/06/24 09:47:03;;;;;;;11.10;3.88;;;31.40;86.90;;;;;;4983545;28;20043;-73
2023/06/24 09:49:29;;;;;;;7.63;3.35;;;31.50;86.80;;;;;;4920484;28;211989;-73
2023/06/24 09:51:58;;;;;;;9.32;3.83;;;31.80;86.90;;;;;;4986039;28;20057;-73
2023/06/24 09:54:27;;;;;;;8.68;3.53;;;31.90;86.50;;;;;;4937449;28;211667;-72
2023/06/24 09:56:59;;;;;;;9.90;3.50;;;32.50;85.10;;;;;;4997902;28;20053;-71
2023/06/24 09:59:27;;;;;;;9.88;3.50;;;32.30;83.70;;;;;;4949395;28;207288;-73
2023/06/24 10:01:54;;;;;;;9.15;3.67;;;32.30;84.60;;;;;;4996215;28;20053;-73
2023/06/24 10:04:25;;;;;;;8.52;3.20;;;32.60;84.40;;;;;;4953012;28;209493;-71
2023/06/24 10:06:51;;;;;;;8.05;3.20;;;33.10;84.50;;;;;;4994279;28;20049;-72
2023/06/24 10:09:19;;;;;;;9.20;3.35;;;33.20;82.70;;;;;;4933713;28;200978;-72
2023/06/24 10:11:47;;;;;;;8.88;3.78;;;32.70;83.10;;;;;;4981928;28;20495;-73
2023/06/24 10:14:17;;;;;;;8.32;3.38;;;32.80;81.60;;;;;;4935985;28;203286;-73
2023/06/24 10:16:43;;;;;;;10.75;3.50;;;32.90;80.70;;;;;;4999721;28;20061;-72
2023/06/24 10:19:10;;;;;;;9.80;3.60;;;33.30;81.90;;;;;;4932788;28;216311;-73
2023/06/24 10:21:57;;;;;;;9.18;2.78;;;33.60;80.40;;;;;;4979582;28;20476;-72
2023/06/24 10:24:31;;;;;;;7.78;3.05;;;33.50;78.00;;;;;;4928481;28;208527;-72
2023/06/24 10:27:24;;;;;;;7.50;2.97;;;33.10;78.10;;;;;;4996994;28;20057;-73
2023/06/24 10:29:52;;;;;;;8.10;2.90;;;33.10;77.60;;;;;;4959007;28;207968;-73
2023/06/24 10:32:19;;;;;;;7.57;2.72;;;32.60;79.70;;;;;;4985226;28;20054;-71
2023/06/24 10:34:47;;;;;;;8.02;2.70;;;32.10;78.30;;;;;;4906990;28;210457;-72
2023/06/24 10:37:21;;;;;;;10.98;3.20;;;32.30;79.30;;;;;;4943504;28;20062;-72
2023/06/24 10:39:57;;;;;;;7.45;2.88;;;32.70;78.20;;;;;;4944218;28;210115;-72
2023/06/24 10:42:41;;;;;;;9.07;3.08;;;33.10;78.40;;;;;;4976813;28;20058;-73
2023/06/24 10:45:10;;;;;;;7.65;3.10;;;33.20;77.80;;;;;;4940714;28;215365;-73
2023/06/24 10:47:41;;;;;;;7.83;2.90;;;33.40;79.20;;;;;;4982458;28;20065;-73
2023/06/24 10:50:09;;;;;;;8.13;2.65;;;33.60;74.70;;;;;;4926925;28;198316;-73
2023/06/24 10:52:40;;;;;;;9.40;3.72;;;33.40;76.80;;;;;;4969688;28;20055;-73
2023/06/24 10:55:07;;;;;;;7.40;2.65;;;33.70;75.90;;;;;;4893647;28;188777;-73
2023/06/24 10:57:33;;;;;;;8.77;3.30;;;33.10;75.70;;;;;;4966980;28;20054;-73
2023/06/24 11:00:01;;;;;;;8.48;3.00;;;32.00;77.40;;;;;;4917948;28;220575;-73
2023/06/24 11:02:27;;;;;;;8.13;2.85;;;31.40;77.90;;;;;;4969717;28;20061;-71
2023/06/24 11:05:01;;;;;;;8.25;2.90;;;31.00;78.60;;;;;;4918165;28;207085;-72
2023/06/24 11:07:34;;;;;;;8.35;3.10;;;31.50;79.20;;;;;;4967309;28;20050;-71
2023/06/24 11:10:14;;;;;;;9.00;2.90;;;32.10;77.90;;;;;;4922105;28;212696;-71
2023/06/24 11:12:42;;;;;;;8.30;3.00;;;32.60;77.30;;;;;;4962110;28;20055;-71
2023/06/24 11:15:13;;;;;;;8.40;2.97;;;33.00;77.20;;;;;;4930572;28;215167;-70
2023/06/24 11:17:40;;;;;;;8.75;2.90;;;32.10;77.30;;;;;;4965450;28;20054;-71
2023/06/24 11:20:14;;;;;;;8.77;2.88;;;31.90;77.40;;;;;;4929836;28;210378;-70
2023/06/24 11:22:41;;;;;;;9.23;3.00;;;31.80;78.20;;;;;;4972841;28;20109;-71
2023/06/24 11:25:15;;;;;;;7.95;3.33;;;32.00;77.50;;;;;;4936769;28;216388;-70
2023/06/24 11:27:41;;;;;;;8.10;3.20;;;32.00;77.70;;;;;;4987453;28;20539;-71
2023/06/24 11:30:08;;;;;;;8.45;2.90;;;32.30;77.10;;;;;;4954457;28;207842;-71
2023/06/24 11:32:38;;;;;;;10.95;3.40;;;32.10;77.60;;;;;;4975030;28;20067;-70
2023/06/24 11:35:06;;;;;;;9.27;3.33;;;31.90;78.90;;;;;;4914318;28;210878;-70
2023/06/24 11:37:35;;;;;;;8.80;3.05;;;31.60;78.40;;;;;;4963688;28;20080;-70
2023/06/24 11:40:05;;;;;;;8.30;3.17;;;31.30;79.00;;;;;;4945523;28;210657;-71
2023/06/24 11:42:36;;;;;;;7.85;3.17;;;31.30;78.30;;;;;;4987286;28;20054;-70
2023/06/24 11:45:04;;;;;;;9.40;3.40;;;31.00;79.30;;;;;;4949335;28;207037;-70
2023/06/24 11:47:35;;;;;;;8.75;3.40;;;30.70;80.40;;;;;;4980810;28;20050;-71
2023/06/24 11:50:03;;;;;;;8.27;3.35;;;30.30;81.10;;;;;;4944269;28;206254;-71
2023/06/24 11:52:44;;;;;;;9.10;3.35;;;30.50;82.30;;;;;;4993173;28;20372;-71
2023/06/24 11:55:17;;;;;;;8.50;3.10;;;31.40;81.70;;;;;;4906660;28;226884;-71
2023/06/24 11:58:18;;;;;;;8.45;3.28;;;31.60;79.60;;;;;;4977813;28;20054;-70
2023/06/24 12:00:46;;;;;;;9.85;3.03;;;31.30;80.20;;;;;;4938774;28;209773;-70
2023/06/24 12:03:13;;;;;;;9.68;3.22;;;31.20;79.90;;;;;;4989024;28;20172;-71
2023/06/24 12:05:44;;;;;;;9.15;3.38;;;31.10;79.30;;;;;;4949019;28;210732;-72
2023/06/24 12:08:11;;;;;;;9.23;3.28;;;31.30;79.40;;;;;;4988041;28;20046;-70
2023/06/24 12:10:38;;;;;;;8.93;3.00;;;31.00;78.60;;;;;;4894503;28;133397;-70
2023/06/24 12:13:08;;;;;;;9.13;3.30;;;30.70;77.60;;;;;;4974372;28;20058;-72
2023/06/24 12:15:34;;;;;;;8.52;3.03;;;30.80;79.10;;;;;;4961193;28;206240;-71
2023/06/24 12:18:01;;;;;;;8.32;3.40;;;30.60;79.50;;;;;;4981240;28;20051;-71
2023/06/24 12:20:29;;;;;;;8.55;3.30;;;30.50;79.60;;;;;;4939866;28;207045;-72
2023/06/24 12:22:58;;;;;;;8.43;3.40;;;30.20;80.90;;;;;;4966331;28;20054;-70
2023/06/24 12:25:24;;;;;;;8.07;3.28;;;29.70;81.10;;;;;;4928713;28;215645;-69
2023/06/24 12:27:51;;;;;;;12.25;3.63;;;29.40;81.40;;;;;;4967846;28;20388;-70
2023/06/24 12:30:20;;;;;;;8.98;3.55;;;29.10;81.70;;;;;;4873774;28;1796663;-70
2023/06/24 12:32:50;;;;;;;8.82;3.40;;;29.20;82.20;;;;;;4967915;28;20055;-69
2023/06/24 12:35:17;;;;;;;8.43;3.58;;;29.80;82.20;;;;;;4950205;28;207067;-71